This is the latest recevied weather packets stored in our database for station/object IU0KRR-10. If no packets are shown the sender has not sent any weather packets the latest 10 day(s).
| Time | Temp. | Humidity | Pressure | Rain* | Wind** | Luminosity | Snow |
|---|---|---|---|---|---|---|---|
| 1787603182 | 21.11° C | 53% | 874.6 hPa | - | - | - | - |
| 1787602278 | 21.67° C | 54% | 875.3 hPa | - | - | - | - |
| 1787601410 | 21.67° C | 51% | 875.8 hPa | - | - | - | - |
| 1787601377 | 21.67° C | 51% | 875.8 hPa | - | - | - | - |
| 1787600476 | 22.22° C | 49% | 876.1 hPa | - | - | - | - |
| 1787599662 | 22.22° C | 49% | 876.1 hPa | - | - | - | - |
| 1787599575 | 22.22° C | 49% | 876.1 hPa | - | - | - | - |
| 1787598758 | 22.22° C | 48% | 876.2 hPa | - | - | - | - |
| 1787598674 | 22.22° C | 48% | 876.2 hPa | - | - | - | - |
| 1787597809 | 22.22° C | 50% | 876.2 hPa | - | - | - | - |
| 1787597774 | 22.22° C | 50% | 876.2 hPa | - | - | - | - |
| 1787596873 | 22.78° C | 47% | 876.2 hPa | - | - | - | - |
| 1787596007 | 23.33° C | 47% | 876 hPa | - | - | - | - |
| 1787595971 | 23.33° C | 47% | 876 hPa | - | - | - | - |
| 1787595142 | 23.89° C | 45% | 875.9 hPa | - | - | - | - |
| 1787595070 | 23.89° C | 45% | 875.9 hPa | - | - | - | - |
| 1787594225 | 25° C | 43% | 875.6 hPa | - | - | - | - |
| 1787594169 | 25° C | 43% | 875.6 hPa | - | - | - | - |
| 1787593269 | 25.56° C | 38% | 875.7 hPa | - | - | - | - |
| 1787592368 | 26.67° C | 32% | 875.6 hPa | - | - | - | - |
| 1787591467 | 27.22° C | 30% | 875.5 hPa | - | - | - | - |
| 1787590566 | 27.78° C | 30% | 875.6 hPa | - | - | - | - |
| 1787589696 | 27.78° C | 31% | 875.6 hPa | - | - | - | - |
| 1787589665 | 27.78° C | 31% | 875.6 hPa | - | - | - | - |
| 1787588831 | 27.78° C | 31% | 875.7 hPa | - | - | - | - |
* Rain since midnight (hover to see other rain measurements)
** Current wind speed in m/s (hover to see current wind gust speed)